Nearby METAR Reports

 

KHOB - Hobbs, New Mexico, USA
Distance from station: S 40mi, 65km
Updated: Mon, 17-Jun-2019 10:55pm MDT
Mostly cloudy
Mostly cloudy
 Wind from ESE
Wind: ESE 17 mph , 28 km/h, Gust: 23 mph , 37 km/h
Temperature: 73°F , 23°C
Dew Point: 68°F , 20°C
Humidity: 83%
Barometer: 30.02 inHg , 1016.6 hPa
Clouds: Mostly cloudy
Visibility: 10 miles , 16 km
Cloud details: Few Clouds 2700 ft
Partly cloudy 3700 ft
Mostly cloudy 7000 ft
2019/06/18 04:55 KHOB 180455Z AUTO 11015G20KT 10SM FEW027 SCT037 BKN070 23/20 A3002 RMK AO2 LTG DSNT NE
KGNC - Seminole, Texas, USA
Distance from station: SE 55mi, 89km
Updated: Mon, 17-Jun-2019 10:55pm MDT
Partly cloudy
Partly cloudy
 Wind from ENE
Wind: ENE 12 mph , 19 km/h
Temperature: 75°F , 24°C
Dew Point: 68°F , 20°C
Humidity: 78%
Barometer: 30.06 inHg , 1017.9 hPa
Clouds: Partly cloudy
Visibility: 10 miles , 16 km
Cloud details: Partly cloudy 4100 ft
2019/06/18 04:55 KGNC 180455Z AUTO 07010KT 10SM SCT041 24/20 A3006 RMK AO2 T02360197
 
KROW - Roswell, New Mexico, USA
Distance from station: W 67mi, 108km
Updated: Mon, 17-Jun-2019 10:51pm MDT
Few Clouds
Few Clouds
 Wind from N
Wind: N 7 mph , 11 km/h
Temperature: 75°F , 24°C
Dew Point: 48°F , 9°C
Humidity: 39%
Barometer: 29.98 inHg , 1015.2 hPa
Clouds: Few Clouds
Visibility: 10 miles , 16 km
Cloud details: Few Clouds 7000 ft
2019/06/18 04:51 KROW 180451Z AUTO 36006KT 10SM FEW070 24/09 A2998 RMK AO2 LTG DSNT NE AND E SLP084 T02440094 $
KATS - Artesia, New Mexico, USA
Distance from station: WSW 71mi, 114km
Updated: Mon, 17-Jun-2019 10:55pm MDT
Clear
Clear
 Wind from SE
Wind: SE 8 mph , 13 km/h
Temperature: 75°F , 24°C
Dew Point: 63°F , 17°C
Humidity: 65%
Barometer: 29.96 inHg , 1014.6 hPa
Clouds: Clear
Visibility: 10 miles , 16 km
2019/06/18 04:55 KATS 180455Z AUTO 14007KT 10SM CLR 24/17 A2996 RMK AO2 LTG DSNT NE
 
KCVS - Cannon AFB,Clovis, New Mexico, USA
Distance from station: 0 78mi, 125km
Updated: Mon, 17-Jun-2019 10:58pm MDT
Light rain, Nearby thunderstorm, Overcast
Light rain, Nearby thunderstorm, Overcast
 Wind from ESE
Wind: ESE 20 mph , 31 km/h, Gust: 25 mph , 41 km/h
Temperature: 59°F , 15°C
Dew Point: 57°F , 14°C
Humidity: 94%
Barometer: 30.10 inHg , 1019.3 hPa
Summary: Light rain, Nearby thunderstorm
Clouds: Overcast
Visibility: 7 miles , 11 km
Cloud details: Partly cloudy 6000 ft
Mostly cloudy 8000 ft
Overcast 10000 ft
2019/06/18 04:58 KCVS 180458Z AUTO 11017G22KT 7SM -RA VCTS SCT060 BKN080 OVC100 15/14 A3010 RMK AO2 PK WND 11027/55 RAB50 PRESFR SLP143 P0000 T01500137 $
KE11 - Andrews, Texas, USA
Distance from station: SE 78mi, 126km
Updated: Mon, 17-Jun-2019 10:55pm MDT
Clear
Clear
 Wind from SE
Wind: SE 8 mph , 13 km/h
Temperature: 75°F , 24°C
Dew Point: 66°F , 19°C
Humidity: 74%
Barometer: 29.98 inHg , 1015.2 hPa
Clouds: Clear
Visibility: 10 miles , 16 km
2019/06/18 04:55 KE11 180455Z AUTO 14007KT 10SM CLR 24/19 A2998 RMK AO2 T02390191 403390192
 
KCNM - Carlsbad, New Mexico, USA
Distance from station: SW 82mi, 132km
Updated: Mon, 17-Jun-2019 10:53pm MDT
Clear
Clear
 Wind from SSE
Wind: SSE 8 mph , 13 km/h
Temperature: 75°F , 24°C
Dew Point: 52°F , 11°C
Humidity: 44%
Barometer: 29.93 inHg , 1013.5 hPa
Clouds: Clear
Visibility: 10 miles , 16 km
2019/06/18 04:53 KCNM 180453Z AUTO 15007KT 10SM CLR 24/11 A2993 RMK AO2 SLP080 T02440111
KCVN - Clovis Muni, New Mexico, USA
Distance from station: N 83mi, 133km
Updated: Mon, 17-Jun-2019 10:56pm MDT
Few Clouds
Few Clouds
 Wind from SSE
Wind: SSE 9 mph , 15 km/h
Temperature: 61°F , 16°C
Dew Point: 57°F , 14°C
Humidity: 88%
Barometer: 30.14 inHg , 1020.7 hPa
Clouds: Few Clouds
Visibility: 10 miles , 16 km
Cloud details: Few Clouds 12000 ft
2019/06/18 04:56 KCVN 180456Z AUTO 16008KT 10SM FEW120 16/14 A3014 RMK AO2 LTG DSNT SE-SW TSE34RAE46 SLP172 P0000 T01560139
 
KLBB - Lubbock, Texas, USA
Distance from station: ENE 92mi, 149km
Updated: Mon, 17-Jun-2019 10:53pm MDT
Thunderstorm, Overcast
Thunderstorm, Overcast
 Wind from N
Wind: N 18 mph , 30 km/h
Temperature: 64°F , 18°C
Dew Point: 61°F , 16°C
Humidity: 88%
Barometer: 30.09 inHg , 1019 hPa
Summary: Thunderstorm
Clouds: Overcast
Visibility: 10 miles , 16 km
Cloud details: Few Clouds 4100 ft
Overcast 10000 ft
2019/06/18 04:53 KLBB 180453Z 01016KT 10SM TS FEW041CB OVC100 18/16 A3009 RMK AO2 PK WND 33027/0356 LTG DSNT ALQDS RAE31 TSE43B52 SLP144 FRQ LTGICCG DSNT NE CB DSNT NE MOV E FRQ LTGICCG W-N TS W-N MOV SE P0000 T01830156
KINK - Wink, Texas, USA
Distance from station: S 101mi, 163km
Updated: Mon, 17-Jun-2019 10:53pm MDT
Clear
Clear
 Wind from SE
Wind: SE 12 mph , 19 km/h
Temperature: 79°F , 26°C
Dew Point: 64°F , 18°C
Humidity: 61%
Barometer: 29.92 inHg , 1013.2 hPa
Clouds: Clear
Visibility: 10 miles , 16 km
2019/06/18 04:53 KINK 180453Z AUTO 14010KT 10SM CLR 26/18 A2992 RMK AO2 SLP085 T02610183
 
KMAF - Midland, Texas, USA
Distance from station: SE 111mi, 179km
Updated: Mon, 17-Jun-2019 10:53pm MDT
Clear
Clear
 Wind from SSE
Wind: SSE 14 mph , 22 km/h
Temperature: 81°F , 27°C
Heat Index: 84°F , 29°C
Dew Point: 68°F , 20°C
Humidity: 66%
Barometer: 29.96 inHg , 1014.6 hPa
Clouds: Clear
Visibility: 10 miles , 16 km
2019/06/18 04:53 KMAF 180453Z 16012KT 10SM CLR 27/20 A2996 RMK AO2 SLP095 T02670200
KSRR - Sierra B/Ruidoso, New Mexico, USA
Distance from station: W 127mi, 204km
Updated: Mon, 17-Jun-2019 10:55pm MDT
Clear
Clear
 Wind from WNW
Wind: WNW 6 mph , 9 km/h
Temperature: 63°F , 17°C
Dew Point: 45°F , 7°C
Humidity: 52%
Barometer: 30.22 inHg , 1023.4 hPa
Clouds: Clear
Visibility: 10 miles , 16 km
2019/06/18 04:55 KSRR 180455Z AUTO 29005KT 10SM CLR 17/07 A3022 RMK AO2
 
KGDP - Guadalupe Pass, Texas, USA
Distance from station: SW 130mi, 209km
Updated: Mon, 17-Jun-2019 10:51pm MDT

 
2019/06/18 04:51 KGDP 180451Z AUTO RMK AO2 SLPNO PWINO $